sensor_id;sensor_type;location;lat;lon;timestamp;temperature;humidity
42989;DHT22;28622;43.716;20.668;2022-08-19T00:01:10;21.90;99.90
42989;DHT22;28622;43.716;20.668;2022-08-19T00:03:37;21.80;99.90
42989;DHT22;28622;43.716;20.668;2022-08-19T00:06:03;21.80;99.90
42989;DHT22;28622;43.716;20.668;2022-08-19T00:08:29;21.70;99.90
42989;DHT22;28622;43.716;20.668;2022-08-19T00:10:54;21.70;99.90
42989;DHT22;28622;43.716;20.668;2022-08-19T00:13:20;21.60;99.90
42989;DHT22;28622;43.716;20.668;2022-08-19T00:15:46;21.60;99.90
42989;DHT22;28622;43.716;20.668;2022-08-19T00:18:12;21.60;99.90
42989;DHT22;28622;43.716;20.668;2022-08-19T00:20:37;21.60;99.90
42989;DHT22;28622;43.716;20.668;2022-08-19T00:23:06;21.50;99.90
42989;DHT22;28622;43.716;20.668;2022-08-19T00:25:32;21.50;99.90
42989;DHT22;28622;43.716;20.668;2022-08-19T00:27:59;21.40;99.90
42989;DHT22;28622;43.716;20.668;2022-08-19T00:30:25;21.40;99.90
42989;DHT22;28622;43.716;20.668;2022-08-19T00:32:53;21.30;99.90
42989;DHT22;28622;43.716;20.668;2022-08-19T00:35:20;21.30;99.90
42989;DHT22;28622;43.716;20.668;2022-08-19T00:37:48;21.20;99.90
42989;DHT22;28622;43.716;20.668;2022-08-19T00:40:14;21.20;99.90
42989;DHT22;28622;43.716;20.668;2022-08-19T00:42:42;21.20;99.90
42989;DHT22;28622;43.716;20.668;2022-08-19T00:45:13;21.00;99.90
42989;DHT22;28622;43.716;20.668;2022-08-19T00:47:40;21.00;99.90
42989;DHT22;28622;43.716;20.668;2022-08-19T00:50:06;21.00;99.90
42989;DHT22;28622;43.716;20.668;2022-08-19T00:52:36;21.00;99.90
42989;DHT22;28622;43.716;20.668;2022-08-19T00:55:05;21.00;99.90
42989;DHT22;28622;43.716;20.668;2022-08-19T00:57:36;21.10;99.90
42989;DHT22;28622;43.716;20.668;2022-08-19T01:00:08;21.00;99.90
42989;DHT22;28622;43.716;20.668;2022-08-19T01:02:36;21.00;99.90
42989;DHT22;28622;43.716;20.668;2022-08-19T01:05:05;21.00;99.90
42989;DHT22;28622;43.716;20.668;2022-08-19T01:07:33;21.10;99.90
42989;DHT22;28622;43.716;20.668;2022-08-19T01:09:59;21.10;99.90
42989;DHT22;28622;43.716;20.668;2022-08-19T01:12:25;21.00;99.90
42989;DHT22;28622;43.716;20.668;2022-08-19T01:14:51;21.00;99.90
42989;DHT22;28622;43.716;20.668;2022-08-19T01:17:19;21.10;99.90
42989;DHT22;28622;43.716;20.668;2022-08-19T01:19:46;21.00;99.90
42989;DHT22;28622;43.716;20.668;2022-08-19T01:22:14;20.90;99.90
42989;DHT22;28622;43.716;20.668;2022-08-19T01:24:41;20.90;99.90
42989;DHT22;28622;43.716;20.668;2022-08-19T01:27:08;20.90;99.90
42989;DHT22;28622;43.716;20.668;2022-08-19T01:29:37;20.90;99.90
42989;DHT22;28622;43.716;20.668;2022-08-19T01:32:04;20.90;99.90
42989;DHT22;28622;43.716;20.668;2022-08-19T01:34:30;20.80;99.90
42989;DHT22;28622;43.716;20.668;2022-08-19T01:36:55;20.90;99.90
42989;DHT22;28622;43.716;20.668;2022-08-19T01:39:24;20.80;99.90
42989;DHT22;28622;43.716;20.668;2022-08-19T01:41:50;20.80;99.90
42989;DHT22;28622;43.716;20.668;2022-08-19T01:44:20;20.80;99.90
42989;DHT22;28622;43.716;20.668;2022-08-19T01:46:50;20.80;99.90
42989;DHT22;28622;43.716;20.668;2022-08-19T01:49:19;20.80;99.90
42989;DHT22;28622;43.716;20.668;2022-08-19T01:51:45;20.80;99.90
42989;DHT22;28622;43.716;20.668;2022-08-19T01:54:13;20.80;99.90
42989;DHT22;28622;43.716;20.668;2022-08-19T01:56:40;20.70;99.90
42989;DHT22;28622;43.716;20.668;2022-08-19T01:59:12;20.60;99.90
42989;DHT22;28622;43.716;20.668;2022-08-19T02:01:39;20.60;99.90
42989;DHT22;28622;43.716;20.668;2022-08-19T02:04:05;20.60;99.90
42989;DHT22;28622;43.716;20.668;2022-08-19T02:06:31;20.70;99.90
42989;DHT22;28622;43.716;20.668;2022-08-19T02:08:57;20.70;99.90
42989;DHT22;28622;43.716;20.668;2022-08-19T02:11:31;20.70;99.90
42989;DHT22;28622;43.716;20.668;2022-08-19T02:13:58;20.70;99.90
42989;DHT22;28622;43.716;20.668;2022-08-19T02:16:24;20.60;99.90
42989;DHT22;28622;43.716;20.668;2022-08-19T02:18:50;20.60;99.90
42989;DHT22;28622;43.716;20.668;2022-08-19T02:21:17;20.60;99.90
42989;DHT22;28622;43.716;20.668;2022-08-19T02:23:44;20.60;99.90
42989;DHT22;28622;43.716;20.668;2022-08-19T02:26:10;20.50;99.90
42989;DHT22;28622;43.716;20.668;2022-08-19T02:28:36;20.40;99.90
42989;DHT22;28622;43.716;20.668;2022-08-19T02:31:03;20.30;99.90
42989;DHT22;28622;43.716;20.668;2022-08-19T02:33:29;20.30;99.90
42989;DHT22;28622;43.716;20.668;2022-08-19T02:35:55;20.30;99.90
42989;DHT22;28622;43.716;20.668;2022-08-19T02:38:20;20.20;99.90
42989;DHT22;28622;43.716;20.668;2022-08-19T02:41:00;20.20;99.90
42989;DHT22;28622;43.716;20.668;2022-08-19T02:43:28;20.20;99.90
42989;DHT22;28622;43.716;20.668;2022-08-19T02:45:54;20.20;99.90
42989;DHT22;28622;43.716;20.668;2022-08-19T02:48:22;20.10;99.90
42989;DHT22;28622;43.716;20.668;2022-08-19T02:50:50;20.10;99.90
42989;DHT22;28622;43.716;20.668;2022-08-19T02:53:22;20.10;99.90
42989;DHT22;28622;43.716;20.668;2022-08-19T02:55:49;20.00;99.90
42989;DHT22;28622;43.716;20.668;2022-08-19T02:58:15;20.10;99.90
42989;DHT22;28622;43.716;20.668;2022-08-19T03:00:46;20.10;99.90
42989;DHT22;28622;43.716;20.668;2022-08-19T03:03:12;20.10;99.90
42989;DHT22;28622;43.716;20.668;2022-08-19T03:05:38;20.00;99.90
42989;DHT22;28622;43.716;20.668;2022-08-19T03:08:04;20.00;99.90
42989;DHT22;28622;43.716;20.668;2022-08-19T03:10:32;20.00;99.90
42989;DHT22;28622;43.716;20.668;2022-08-19T03:12:58;19.90;99.90
42989;DHT22;28622;43.716;20.668;2022-08-19T03:15:23;19.90;99.90
42989;DHT22;28622;43.716;20.668;2022-08-19T03:17:49;19.90;99.90
42989;DHT22;28622;43.716;20.668;2022-08-19T03:20:15;19.90;99.90
42989;DHT22;28622;43.716;20.668;2022-08-19T03:22:41;19.80;99.90
42989;DHT22;28622;43.716;20.668;2022-08-19T03:25:07;19.80;99.90
42989;DHT22;28622;43.716;20.668;2022-08-19T03:27:33;19.80;99.90
42989;DHT22;28622;43.716;20.668;2022-08-19T03:29:58;19.80;99.90
42989;DHT22;28622;43.716;20.668;2022-08-19T03:32:24;19.70;99.90
42989;DHT22;28622;43.716;20.668;2022-08-19T03:34:50;19.70;99.90
42989;DHT22;28622;43.716;20.668;2022-08-19T03:37:17;19.70;99.90
42989;DHT22;28622;43.716;20.668;2022-08-19T03:39:43;19.70;99.90
42989;DHT22;28622;43.716;20.668;2022-08-19T03:42:09;19.70;99.90
42989;DHT22;28622;43.716;20.668;2022-08-19T03:44:35;19.70;99.90
42989;DHT22;28622;43.716;20.668;2022-08-19T03:47:04;19.70;99.90
42989;DHT22;28622;43.716;20.668;2022-08-19T03:49:31;19.60;99.90
42989;DHT22;28622;43.716;20.668;2022-08-19T03:51:59;19.60;99.90
42989;DHT22;28622;43.716;20.668;2022-08-19T03:54:26;19.60;99.90
42989;DHT22;28622;43.716;20.668;2022-08-19T03:56:54;19.60;99.90
42989;DHT22;28622;43.716;20.668;2022-08-19T03:59:29;19.50;99.90
42989;DHT22;28622;43.716;20.668;2022-08-19T04:01:56;19.50;99.90
42989;DHT22;28622;43.716;20.668;2022-08-19T04:04:23;19.50;99.90
42989;DHT22;28622;43.716;20.668;2022-08-19T04:06:49;19.50;99.90
42989;DHT22;28622;43.716;20.668;2022-08-19T04:09:17;19.50;99.90
42989;DHT22;28622;43.716;20.668;2022-08-19T04:11:48;19.50;99.90
42989;DHT22;28622;43.716;20.668;2022-08-19T04:14:18;19.60;99.90
42989;DHT22;28622;43.716;20.668;2022-08-19T04:16:45;19.60;99.90
42989;DHT22;28622;43.716;20.668;2022-08-19T04:19:12;19.60;99.90
42989;DHT22;28622;43.716;20.668;2022-08-19T04:21:38;19.60;99.90
42989;DHT22;28622;43.716;20.668;2022-08-19T04:24:06;19.70;99.90
42989;DHT22;28622;43.716;20.668;2022-08-19T04:26:35;19.70;99.90
42989;DHT22;28622;43.716;20.668;2022-08-19T04:29:04;19.80;99.90
42989;DHT22;28622;43.716;20.668;2022-08-19T04:31:32;19.80;99.90
42989;DHT22;28622;43.716;20.668;2022-08-19T04:34:04;19.90;99.90
42989;DHT22;28622;43.716;20.668;2022-08-19T04:36:33;20.00;99.90
42989;DHT22;28622;43.716;20.668;2022-08-19T04:39:04;20.10;99.90
42989;DHT22;28622;43.716;20.668;2022-08-19T04:41:30;20.20;99.90
42989;DHT22;28622;43.716;20.668;2022-08-19T04:44:15;20.20;99.90
42989;DHT22;28622;43.716;20.668;2022-08-19T04:46:44;20.30;99.90
42989;DHT22;28622;43.716;20.668;2022-08-19T04:49:10;20.30;99.90
42989;DHT22;28622;43.716;20.668;2022-08-19T04:51:39;20.40;99.90
42989;DHT22;28622;43.716;20.668;2022-08-19T04:54:05;20.40;99.90
42989;DHT22;28622;43.716;20.668;2022-08-19T04:56:31;20.50;99.90
42989;DHT22;28622;43.716;20.668;2022-08-19T04:58:57;20.60;99.90
42989;DHT22;28622;43.716;20.668;2022-08-19T05:01:26;20.60;99.90
42989;DHT22;28622;43.716;20.668;2022-08-19T05:03:54;20.70;99.90
42989;DHT22;28622;43.716;20.668;2022-08-19T05:06:21;20.80;99.90
42989;DHT22;28622;43.716;20.668;2022-08-19T05:08:47;20.80;99.90
42989;DHT22;28622;43.716;20.668;2022-08-19T05:11:20;20.90;99.90
42989;DHT22;28622;43.716;20.668;2022-08-19T05:13:47;20.90;99.90
42989;DHT22;28622;43.716;20.668;2022-08-19T05:16:15;20.90;99.90
42989;DHT22;28622;43.716;20.668;2022-08-19T05:18:41;21.00;99.90
42989;DHT22;28622;43.716;20.668;2022-08-19T05:21:27;21.10;99.90
42989;DHT22;28622;43.716;20.668;2022-08-19T05:24:12;21.20;99.90
42989;DHT22;28622;43.716;20.668;2022-08-19T05:26:41;21.20;99.90
42989;DHT22;28622;43.716;20.668;2022-08-19T05:29:08;21.30;99.90
42989;DHT22;28622;43.716;20.668;2022-08-19T05:31:36;21.40;99.90
42989;DHT22;28622;43.716;20.668;2022-08-19T05:34:05;21.50;99.90
42989;DHT22;28622;43.716;20.668;2022-08-19T05:36:35;21.60;99.90
42989;DHT22;28622;43.716;20.668;2022-08-19T05:39:04;21.60;99.90
42989;DHT22;28622;43.716;20.668;2022-08-19T05:41:29;21.70;99.90
42989;DHT22;28622;43.716;20.668;2022-08-19T05:44:01;21.70;99.90
42989;DHT22;28622;43.716;20.668;2022-08-19T05:46:28;21.70;99.90
42989;DHT22;28622;43.716;20.668;2022-08-19T05:48:54;21.80;99.90
42989;DHT22;28622;43.716;20.668;2022-08-19T05:51:23;21.90;99.90
42989;DHT22;28622;43.716;20.668;2022-08-19T05:53:50;22.10;99.90
42989;DHT22;28622;43.716;20.668;2022-08-19T05:56:16;22.20;99.90
42989;DHT22;28622;43.716;20.668;2022-08-19T06:01:16;22.30;99.90
42989;DHT22;28622;43.716;20.668;2022-08-19T06:03:43;22.50;99.90
42989;DHT22;28622;43.716;20.668;2022-08-19T06:06:12;22.70;99.90
42989;DHT22;28622;43.716;20.668;2022-08-19T06:08:39;22.80;99.90
42989;DHT22;28622;43.716;20.668;2022-08-19T06:13:50;23.00;99.90
42989;DHT22;28622;43.716;20.668;2022-08-19T06:16:19;23.20;99.90
42989;DHT22;28622;43.716;20.668;2022-08-19T06:18:52;23.40;99.90
42989;DHT22;28622;43.716;20.668;2022-08-19T06:21:22;23.50;99.90
42989;DHT22;28622;43.716;20.668;2022-08-19T06:23:48;23.60;99.90
42989;DHT22;28622;43.716;20.668;2022-08-19T06:26:17;23.80;99.90
42989;DHT22;28622;43.716;20.668;2022-08-19T06:28:45;24.00;99.90
42989;DHT22;28622;43.716;20.668;2022-08-19T06:31:22;24.10;99.90
42989;DHT22;28622;43.716;20.668;2022-08-19T06:33:49;24.30;99.90
42989;DHT22;28622;43.716;20.668;2022-08-19T06:36:25;24.40;99.90
42989;DHT22;28622;43.716;20.668;2022-08-19T06:38:58;24.60;99.90
42989;DHT22;28622;43.716;20.668;2022-08-19T06:41:28;24.90;99.90
42989;DHT22;28622;43.716;20.668;2022-08-19T06:43:55;25.00;99.90
42989;DHT22;28622;43.716;20.668;2022-08-19T06:46:24;25.10;99.90
42989;DHT22;28622;43.716;20.668;2022-08-19T06:48:50;25.30;99.90
42989;DHT22;28622;43.716;20.668;2022-08-19T06:51:18;25.50;99.90
42989;DHT22;28622;43.716;20.668;2022-08-19T06:53:46;25.70;99.90
42989;DHT22;28622;43.716;20.668;2022-08-19T06:56:17;26.10;99.90
42989;DHT22;28622;43.716;20.668;2022-08-19T06:58:44;26.40;99.90
42989;DHT22;28622;43.716;20.668;2022-08-19T07:01:10;26.80;99.90
42989;DHT22;28622;43.716;20.668;2022-08-19T07:03:37;27.00;99.90
42989;DHT22;28622;43.716;20.668;2022-08-19T07:06:11;27.10;99.30
42989;DHT22;28622;43.716;20.668;2022-08-19T07:08:38;27.40;98.60
42989;DHT22;28622;43.716;20.668;2022-08-19T07:11:09;27.50;98.80
42989;DHT22;28622;43.716;20.668;2022-08-19T07:13:37;27.70;97.50
42989;DHT22;28622;43.716;20.668;2022-08-19T07:16:07;28.00;96.70
42989;DHT22;28622;43.716;20.668;2022-08-19T07:18:34;28.00;97.10
42989;DHT22;28622;43.716;20.668;2022-08-19T07:21:11;28.30;96.50
42989;DHT22;28622;43.716;20.668;2022-08-19T07:23:37;28.40;96.30
42989;DHT22;28622;43.716;20.668;2022-08-19T07:26:09;28.50;96.50
42989;DHT22;28622;43.716;20.668;2022-08-19T07:28:35;28.50;95.40
42989;DHT22;28622;43.716;20.668;2022-08-19T07:31:12;28.50;95.90
42989;DHT22;28622;43.716;20.668;2022-08-19T07:33:39;28.90;95.30
42989;DHT22;28622;43.716;20.668;2022-08-19T07:36:08;29.10;94.00
42989;DHT22;28622;43.716;20.668;2022-08-19T07:38:38;29.00;93.90
42989;DHT22;28622;43.716;20.668;2022-08-19T07:41:05;29.00;93.20
42989;DHT22;28622;43.716;20.668;2022-08-19T07:43:31;29.50;94.40
42989;DHT22;28622;43.716;20.668;2022-08-19T07:45:57;29.30;92.60
42989;DHT22;28622;43.716;20.668;2022-08-19T07:48:25;29.40;92.30
42989;DHT22;28622;43.716;20.668;2022-08-19T07:50:54;29.40;91.30
42989;DHT22;28622;43.716;20.668;2022-08-19T07:53:24;29.70;91.60
42989;DHT22;28622;43.716;20.668;2022-08-19T07:55:50;30.10;90.40
42989;DHT22;28622;43.716;20.668;2022-08-19T07:58:19;30.40;89.50
42989;DHT22;28622;43.716;20.668;2022-08-19T08:00:47;30.40;89.10
42989;DHT22;28622;43.716;20.668;2022-08-19T08:03:15;30.50;88.10
42989;DHT22;28622;43.716;20.668;2022-08-19T08:05:42;30.30;90.10
42989;DHT22;28622;43.716;20.668;2022-08-19T08:08:26;30.20;85.00
42989;DHT22;28622;43.716;20.668;2022-08-19T08:11:12;30.30;88.50
42989;DHT22;28622;43.716;20.668;2022-08-19T08:13:38;31.00;86.70
42989;DHT22;28622;43.716;20.668;2022-08-19T08:16:06;31.10;84.40
42989;DHT22;28622;43.716;20.668;2022-08-19T08:18:33;31.50;83.70
42989;DHT22;28622;43.716;20.668;2022-08-19T08:20:59;31.30;84.40
42989;DHT22;28622;43.716;20.668;2022-08-19T08:23:25;31.60;84.10
42989;DHT22;28622;43.716;20.668;2022-08-19T08:25:53;31.80;83.50
42989;DHT22;28622;43.716;20.668;2022-08-19T08:28:20;31.90;83.00
42989;DHT22;28622;43.716;20.668;2022-08-19T08:30:47;31.90;82.70
42989;DHT22;28622;43.716;20.668;2022-08-19T08:33:22;32.10;83.20
42989;DHT22;28622;43.716;20.668;2022-08-19T08:35:48;32.50;80.70
42989;DHT22;28622;43.716;20.668;2022-08-19T08:38:14;32.70;81.20
42989;DHT22;28622;43.716;20.668;2022-08-19T08:40:53;33.00;82.30
42989;DHT22;28622;43.716;20.668;2022-08-19T08:43:32;33.10;80.30
42989;DHT22;28622;43.716;20.668;2022-08-19T08:46:15;33.10;78.40
42989;DHT22;28622;43.716;20.668;2022-08-19T08:51:23;33.10;78.70
42989;DHT22;28622;43.716;20.668;2022-08-19T08:53:51;33.10;78.00
42989;DHT22;28622;43.716;20.668;2022-08-19T08:56:19;33.20;80.60
42989;DHT22;28622;43.716;20.668;2022-08-19T09:01:15;33.60;79.10
42989;DHT22;28622;43.716;20.668;2022-08-19T09:03:42;34.10;80.60
42989;DHT22;28622;43.716;20.668;2022-08-19T09:06:14;34.20;79.50
42989;DHT22;28622;43.716;20.668;2022-08-19T09:08:59;34.30;79.60
42989;DHT22;28622;43.716;20.668;2022-08-19T09:15:07;34.30;80.10
42989;DHT22;28622;43.716;20.668;2022-08-19T09:17:14;34.60;83.00
42989;DHT22;28622;43.716;20.668;2022-08-19T09:19:53;34.80;80.40
42989;DHT22;28622;43.716;20.668;2022-08-19T09:22:20;34.50;78.50
42989;DHT22;28622;43.716;20.668;2022-08-19T09:24:49;34.30;75.90
42989;DHT22;28622;43.716;20.668;2022-08-19T09:27:19;34.30;74.50
42989;DHT22;28622;43.716;20.668;2022-08-19T09:29:46;34.40;76.80
42989;DHT22;28622;43.716;20.668;2022-08-19T09:32:14;34.60;75.90
42989;DHT22;28622;43.716;20.668;2022-08-19T09:34:40;34.90;77.50
42989;DHT22;28622;43.716;20.668;2022-08-19T09:37:07;35.10;74.20
42989;DHT22;28622;43.716;20.668;2022-08-19T09:39:32;35.00;75.10
42989;DHT22;28622;43.716;20.668;2022-08-19T09:41:58;35.10;73.00
42989;DHT22;28622;43.716;20.668;2022-08-19T09:44:24;35.00;73.30
42989;DHT22;28622;43.716;20.668;2022-08-19T09:46:50;35.10;73.20
42989;DHT22;28622;43.716;20.668;2022-08-19T09:49:18;35.60;72.90
42989;DHT22;28622;43.716;20.668;2022-08-19T09:51:45;35.40;71.90
42989;DHT22;28622;43.716;20.668;2022-08-19T09:54:12;35.50;74.30
42989;DHT22;28622;43.716;20.668;2022-08-19T09:56:39;35.70;71.90
42989;DHT22;28622;43.716;20.668;2022-08-19T09:59:05;35.80;72.50
42989;DHT22;28622;43.716;20.668;2022-08-19T10:01:32;35.70;70.40
42989;DHT22;28622;43.716;20.668;2022-08-19T10:03:59;35.90;69.00
42989;DHT22;28622;43.716;20.668;2022-08-19T10:06:27;35.80;69.80
42989;DHT22;28622;43.716;20.668;2022-08-19T10:08:56;35.90;68.40
42989;DHT22;28622;43.716;20.668;2022-08-19T10:11:25;36.10;69.30
42989;DHT22;28622;43.716;20.668;2022-08-19T10:13:52;36.20;69.50
42989;DHT22;28622;43.716;20.668;2022-08-19T10:16:21;36.30;67.70
42989;DHT22;28622;43.716;20.668;2022-08-19T10:18:49;36.40;68.10
42989;DHT22;28622;43.716;20.668;2022-08-19T10:21:23;36.60;67.50
42989;DHT22;28622;43.716;20.668;2022-08-19T10:23:53;36.70;67.70
42989;DHT22;28622;43.716;20.668;2022-08-19T10:26:22;36.80;67.10
42989;DHT22;28622;43.716;20.668;2022-08-19T10:28:49;36.80;67.50
42989;DHT22;28622;43.716;20.668;2022-08-19T10:31:19;37.00;67.00
42989;DHT22;28622;43.716;20.668;2022-08-19T10:33:46;37.20;68.50
42989;DHT22;28622;43.716;20.668;2022-08-19T10:36:20;37.20;67.40
42989;DHT22;28622;43.716;20.668;2022-08-19T10:38:49;37.20;67.50
42989;DHT22;28622;43.716;20.668;2022-08-19T10:41:30;37.50;68.60
42989;DHT22;28622;43.716;20.668;2022-08-19T10:43:59;37.60;67.70
42989;DHT22;28622;43.716;20.668;2022-08-19T10:46:27;37.60;68.80
42989;DHT22;28622;43.716;20.668;2022-08-19T10:48:54;37.60;67.30
42989;DHT22;28622;43.716;20.668;2022-08-19T10:51:21;37.60;68.70
42989;DHT22;28622;43.716;20.668;2022-08-19T10:54:06;37.80;69.10
42989;DHT22;28622;43.716;20.668;2022-08-19T10:56:32;37.80;69.30
42989;DHT22;28622;43.716;20.668;2022-08-19T11:01:45;37.70;68.30
42989;DHT22;28622;43.716;20.668;2022-08-19T11:04:12;37.50;68.20
42989;DHT22;28622;43.716;20.668;2022-08-19T11:06:40;37.40;69.00
42989;DHT22;28622;43.716;20.668;2022-08-19T11:09:08;37.40;69.70
42989;DHT22;28622;43.716;20.668;2022-08-19T11:11:35;37.30;70.50
42989;DHT22;28622;43.716;20.668;2022-08-19T11:14:08;37.40;71.60
42989;DHT22;28622;43.716;20.668;2022-08-19T11:16:34;37.40;69.90
42989;DHT22;28622;43.716;20.668;2022-08-19T11:19:01;37.30;71.70
42989;DHT22;28622;43.716;20.668;2022-08-19T11:21:34;37.40;70.10
42989;DHT22;28622;43.716;20.668;2022-08-19T11:24:03;37.50;70.70
42989;DHT22;28622;43.716;20.668;2022-08-19T11:26:31;37.30;72.00
42989;DHT22;28622;43.716;20.668;2022-08-19T11:28:59;37.40;71.60
42989;DHT22;28622;43.716;20.668;2022-08-19T11:31:33;37.50;72.60
42989;DHT22;28622;43.716;20.668;2022-08-19T11:34:02;37.50;70.70
42989;DHT22;28622;43.716;20.668;2022-08-19T11:36:29;37.70;69.80
42989;DHT22;28622;43.716;20.668;2022-08-19T11:38:55;37.80;69.10
42989;DHT22;28622;43.716;20.668;2022-08-19T11:41:22;37.60;67.30
42989;DHT22;28622;43.716;20.668;2022-08-19T11:43:49;37.60;69.60
42989;DHT22;28622;43.716;20.668;2022-08-19T11:46:16;37.60;68.50
42989;DHT22;28622;43.716;20.668;2022-08-19T11:48:42;37.50;69.10
42989;DHT22;28622;43.716;20.668;2022-08-19T11:51:11;37.40;70.40
42989;DHT22;28622;43.716;20.668;2022-08-19T11:53:38;37.50;69.20
42989;DHT22;28622;43.716;20.668;2022-08-19T11:56:05;37.70;69.60
42989;DHT22;28622;43.716;20.668;2022-08-19T11:58:32;37.60;67.70
42989;DHT22;28622;43.716;20.668;2022-08-19T12:00:58;37.50;66.40
42989;DHT22;28622;43.716;20.668;2022-08-19T12:03:25;37.70;65.50
42989;DHT22;28622;43.716;20.668;2022-08-19T12:05:50;37.70;64.70
42989;DHT22;28622;43.716;20.668;2022-08-19T12:08:17;37.80;65.30
42989;DHT22;28622;43.716;20.668;2022-08-19T12:10:43;37.80;64.60
42989;DHT22;28622;43.716;20.668;2022-08-19T12:13:11;37.90;66.10
42989;DHT22;28622;43.716;20.668;2022-08-19T12:15:41;37.90;63.00
42989;DHT22;28622;43.716;20.668;2022-08-19T12:18:08;37.80;62.80
42989;DHT22;28622;43.716;20.668;2022-08-19T12:20:36;37.80;64.20
42989;DHT22;28622;43.716;20.668;2022-08-19T12:23:03;37.80;65.80
42989;DHT22;28622;43.716;20.668;2022-08-19T12:25:29;37.80;63.40
42989;DHT22;28622;43.716;20.668;2022-08-19T12:27:56;37.70;63.60
42989;DHT22;28622;43.716;20.668;2022-08-19T12:30:22;37.80;64.70
42989;DHT22;28622;43.716;20.668;2022-08-19T12:32:48;37.80;63.60
42989;DHT22;28622;43.716;20.668;2022-08-19T12:35:14;37.90;64.40
42989;DHT22;28622;43.716;20.668;2022-08-19T12:37:40;37.90;65.60
42989;DHT22;28622;43.716;20.668;2022-08-19T12:40:08;38.00;64.80
42989;DHT22;28622;43.716;20.668;2022-08-19T12:42:34;37.90;65.30
42989;DHT22;28622;43.716;20.668;2022-08-19T12:45:00;37.80;64.00
42989;DHT22;28622;43.716;20.668;2022-08-19T12:47:26;37.70;63.90
42989;DHT22;28622;43.716;20.668;2022-08-19T12:49:52;37.80;64.40
42989;DHT22;28622;43.716;20.668;2022-08-19T12:52:18;37.90;63.70
42989;DHT22;28622;43.716;20.668;2022-08-19T12:54:46;37.80;63.50
42989;DHT22;28622;43.716;20.668;2022-08-19T12:57:12;37.80;63.90
42989;DHT22;28622;43.716;20.668;2022-08-19T12:59:38;37.70;64.30
42989;DHT22;28622;43.716;20.668;2022-08-19T13:02:05;37.70;64.40
42989;DHT22;28622;43.716;20.668;2022-08-19T13:04:33;37.70;64.10
42989;DHT22;28622;43.716;20.668;2022-08-19T13:07:07;37.70;65.20
42989;DHT22;28622;43.716;20.668;2022-08-19T13:09:34;37.80;64.60
42989;DHT22;28622;43.716;20.668;2022-08-19T13:12:00;37.80;65.00
42989;DHT22;28622;43.716;20.668;2022-08-19T13:14:29;37.90;64.30
42989;DHT22;28622;43.716;20.668;2022-08-19T13:16:57;37.70;63.80
42989;DHT22;28622;43.716;20.668;2022-08-19T13:19:23;37.70;64.60
42989;DHT22;28622;43.716;20.668;2022-08-19T13:21:50;37.70;64.00
42989;DHT22;28622;43.716;20.668;2022-08-19T13:24:16;37.80;64.10
42989;DHT22;28622;43.716;20.668;2022-08-19T13:26:42;37.90;63.20
42989;DHT22;28622;43.716;20.668;2022-08-19T13:29:08;37.70;62.70
42989;DHT22;28622;43.716;20.668;2022-08-19T13:31:52;37.60;63.60
42989;DHT22;28622;43.716;20.668;2022-08-19T13:34:36;37.30;65.00
42989;DHT22;28622;43.716;20.668;2022-08-19T13:37:03;37.10;65.00
42989;DHT22;28622;43.716;20.668;2022-08-19T13:39:31;36.90;65.60
42989;DHT22;28622;43.716;20.668;2022-08-19T13:41:58;36.80;64.70
42989;DHT22;28622;43.716;20.668;2022-08-19T13:44:26;36.70;65.10
42989;DHT22;28622;43.716;20.668;2022-08-19T13:46:59;36.50;65.40
42989;DHT22;28622;43.716;20.668;2022-08-19T13:49:25;36.40;65.90
42989;DHT22;28622;43.716;20.668;2022-08-19T13:51:52;36.30;66.10
42989;DHT22;28622;43.716;20.668;2022-08-19T13:54:18;36.30;67.10
42989;DHT22;28622;43.716;20.668;2022-08-19T13:56:45;36.20;68.40
42989;DHT22;28622;43.716;20.668;2022-08-19T13:59:11;36.10;67.60
42989;DHT22;28622;43.716;20.668;2022-08-19T14:01:38;36.00;68.30
42989;DHT22;28622;43.716;20.668;2022-08-19T14:04:06;35.90;67.40
42989;DHT22;28622;43.716;20.668;2022-08-19T14:06:33;35.80;67.90
42989;DHT22;28622;43.716;20.668;2022-08-19T14:08:59;35.60;67.40
42989;DHT22;28622;43.716;20.668;2022-08-19T14:11:27;35.50;67.60
42989;DHT22;28622;43.716;20.668;2022-08-19T14:13:53;35.40;68.30
42989;DHT22;28622;43.716;20.668;2022-08-19T14:16:19;35.30;68.30
42989;DHT22;28622;43.716;20.668;2022-08-19T14:18:48;35.20;68.50
42989;DHT22;28622;43.716;20.668;2022-08-19T14:21:16;35.10;69.80
42989;DHT22;28622;43.716;20.668;2022-08-19T14:23:43;35.00;69.10
42989;DHT22;28622;43.716;20.668;2022-08-19T14:26:18;34.90;69.50
42989;DHT22;28622;43.716;20.668;2022-08-19T14:28:45;34.80;69.60
42989;DHT22;28622;43.716;20.668;2022-08-19T14:31:15;34.70;70.30
42989;DHT22;28622;43.716;20.668;2022-08-19T14:33:42;34.70;70.50
42989;DHT22;28622;43.716;20.668;2022-08-19T14:36:08;34.60;71.70
42989;DHT22;28622;43.716;20.668;2022-08-19T14:38:34;34.50;71.70
42989;DHT22;28622;43.716;20.668;2022-08-19T14:43:36;34.30;73.30
42989;DHT22;28622;43.716;20.668;2022-08-19T14:46:01;34.20;72.30
42989;DHT22;28622;43.716;20.668;2022-08-19T14:48:27;34.10;72.40
42989;DHT22;28622;43.716;20.668;2022-08-19T14:50:53;34.00;72.30
42989;DHT22;28622;43.716;20.668;2022-08-19T14:53:19;34.00;72.80
42989;DHT22;28622;43.716;20.668;2022-08-19T14:55:46;33.90;72.80
42989;DHT22;28622;43.716;20.668;2022-08-19T14:58:12;33.80;73.40
42989;DHT22;28622;43.716;20.668;2022-08-19T15:00:38;33.70;73.90
42989;DHT22;28622;43.716;20.668;2022-08-19T15:03:04;33.60;76.90
42989;DHT22;28622;43.716;20.668;2022-08-19T15:05:30;33.50;77.50
42989;DHT22;28622;43.716;20.668;2022-08-19T15:07:56;33.30;78.50
42989;DHT22;28622;43.716;20.668;2022-08-19T15:10:22;33.30;73.80
42989;DHT22;28622;43.716;20.668;2022-08-19T15:12:50;33.20;76.60
42989;DHT22;28622;43.716;20.668;2022-08-19T15:15:16;33.10;79.60
42989;DHT22;28622;43.716;20.668;2022-08-19T15:17:43;33.00;77.70
42989;DHT22;28622;43.716;20.668;2022-08-19T15:20:11;32.90;79.10
42989;DHT22;28622;43.716;20.668;2022-08-19T15:22:38;32.80;79.40
42989;DHT22;28622;43.716;20.668;2022-08-19T15:25:07;32.60;80.30
42989;DHT22;28622;43.716;20.668;2022-08-19T15:27:33;32.50;79.20
42989;DHT22;28622;43.716;20.668;2022-08-19T15:30:00;32.30;79.70
42989;DHT22;28622;43.716;20.668;2022-08-19T15:32:25;31.90;80.30
42989;DHT22;28622;43.716;20.668;2022-08-19T15:34:53;31.60;80.80
42989;DHT22;28622;43.716;20.668;2022-08-19T15:37:19;31.20;82.60
42989;DHT22;28622;43.716;20.668;2022-08-19T15:39:47;30.90;83.40